sensor_id;sensor_type;location;lat;lon;timestamp;temperature;humidity
34927;DHT22;21132;48.308;14.274;2023-07-08T00:00:58;23.10;39.50
34927;DHT22;21132;48.308;14.274;2023-07-08T00:03:29;23.10;39.80
34927;DHT22;21132;48.308;14.274;2023-07-08T00:06:12;23.10;39.50
34927;DHT22;21132;48.308;14.274;2023-07-08T00:08:49;23.10;39.30
34927;DHT22;21132;48.308;14.274;2023-07-08T00:11:28;23.00;39.90
34927;DHT22;21132;48.308;14.274;2023-07-08T00:14:13;23.00;39.90
34927;DHT22;21132;48.308;14.274;2023-07-08T00:16:58;23.00;39.90
34927;DHT22;21132;48.308;14.274;2023-07-08T00:19:29;22.90;39.70
34927;DHT22;21132;48.308;14.274;2023-07-08T00:22:13;22.90;39.80
34927;DHT22;21132;48.308;14.274;2023-07-08T00:24:53;22.80;40.00
34927;DHT22;21132;48.308;14.274;2023-07-08T00:27:27;22.80;39.30
34927;DHT22;21132;48.308;14.274;2023-07-08T00:30:00;22.80;40.00
34927;DHT22;21132;48.308;14.274;2023-07-08T00:32:30;22.80;40.10
34927;DHT22;21132;48.308;14.274;2023-07-08T00:35:07;22.70;40.00
34927;DHT22;21132;48.308;14.274;2023-07-08T00:37:40;22.70;40.30
34927;DHT22;21132;48.308;14.274;2023-07-08T00:40:17;22.60;40.30
34927;DHT22;21132;48.308;14.274;2023-07-08T00:42:44;22.60;40.60
34927;DHT22;21132;48.308;14.274;2023-07-08T00:45:40;22.60;41.10
34927;DHT22;21132;48.308;14.274;2023-07-08T00:48:25;22.50;40.80
34927;DHT22;21132;48.308;14.274;2023-07-08T00:50:54;22.50;40.70
34927;DHT22;21132;48.308;14.274;2023-07-08T00:53:28;22.50;40.70
34927;DHT22;21132;48.308;14.274;2023-07-08T00:56:16;22.40;40.40
34927;DHT22;21132;48.308;14.274;2023-07-08T00:58:49;22.40;40.50
34927;DHT22;21132;48.308;14.274;2023-07-08T01:01:18;22.40;40.50
34927;DHT22;21132;48.308;14.274;2023-07-08T01:04:14;22.40;40.70
34927;DHT22;21132;48.308;14.274;2023-07-08T01:06:44;22.30;40.80
34927;DHT22;21132;48.308;14.274;2023-07-08T01:09:13;22.30;40.80
34927;DHT22;21132;48.308;14.274;2023-07-08T01:11:40;22.30;41.00
34927;DHT22;21132;48.308;14.274;2023-07-08T01:14:10;22.30;40.90
34927;DHT22;21132;48.308;14.274;2023-07-08T01:16:38;22.30;40.80
34927;DHT22;21132;48.308;14.274;2023-07-08T01:19:06;22.20;40.70
34927;DHT22;21132;48.308;14.274;2023-07-08T01:22:01;22.20;40.90
34927;DHT22;21132;48.308;14.274;2023-07-08T01:24:25;22.20;40.90
34927;DHT22;21132;48.308;14.274;2023-07-08T01:26:53;22.20;41.10
34927;DHT22;21132;48.308;14.274;2023-07-08T01:29:19;22.20;41.10
34927;DHT22;21132;48.308;14.274;2023-07-08T01:31:45;22.20;41.00
34927;DHT22;21132;48.308;14.274;2023-07-08T01:34:15;22.20;40.90
34927;DHT22;21132;48.308;14.274;2023-07-08T01:36:46;22.20;40.90
34927;DHT22;21132;48.308;14.274;2023-07-08T01:39:15;22.20;40.80
34927;DHT22;21132;48.308;14.274;2023-07-08T01:41:50;22.20;40.80
34927;DHT22;21132;48.308;14.274;2023-07-08T01:44:35;22.10;40.80
34927;DHT22;21132;48.308;14.274;2023-07-08T01:47:19;22.20;40.50
34927;DHT22;21132;48.308;14.274;2023-07-08T01:50:01;22.20;40.20
34927;DHT22;21132;48.308;14.274;2023-07-08T01:52:32;22.20;40.60
34927;DHT22;21132;48.308;14.274;2023-07-08T01:55:10;22.30;40.60
34927;DHT22;21132;48.308;14.274;2023-07-08T01:57:42;22.30;40.70
34927;DHT22;21132;48.308;14.274;2023-07-08T02:00:18;22.30;40.50
34927;DHT22;21132;48.308;14.274;2023-07-08T02:02:58;22.30;40.50
34927;DHT22;21132;48.308;14.274;2023-07-08T02:05:31;22.30;41.10
34927;DHT22;21132;48.308;14.274;2023-07-08T02:08:21;22.30;40.50
34927;DHT22;21132;48.308;14.274;2023-07-08T02:10:58;22.30;40.50
34927;DHT22;21132;48.308;14.274;2023-07-08T02:13:35;22.30;40.40
34927;DHT22;21132;48.308;14.274;2023-07-08T02:16:14;22.30;40.60
34927;DHT22;21132;48.308;14.274;2023-07-08T02:18:54;22.30;40.40
34927;DHT22;21132;48.308;14.274;2023-07-08T02:21:33;22.30;40.70
34927;DHT22;21132;48.308;14.274;2023-07-08T02:24:08;22.30;40.60
34927;DHT22;21132;48.308;14.274;2023-07-08T02:26:44;22.20;40.50
34927;DHT22;21132;48.308;14.274;2023-07-08T02:29:23;22.30;40.80
34927;DHT22;21132;48.308;14.274;2023-07-08T02:32:00;22.30;40.70
34927;DHT22;21132;48.308;14.274;2023-07-08T02:34:38;22.20;41.00
34927;DHT22;21132;48.308;14.274;2023-07-08T02:37:18;22.20;41.10
34927;DHT22;21132;48.308;14.274;2023-07-08T02:39:49;22.20;42.20
34927;DHT22;21132;48.308;14.274;2023-07-08T02:42:30;22.10;42.10
34927;DHT22;21132;48.308;14.274;2023-07-08T02:45:15;22.10;42.30
34927;DHT22;21132;48.308;14.274;2023-07-08T02:47:54;22.00;42.20
34927;DHT22;21132;48.308;14.274;2023-07-08T02:50:33;22.00;41.90
34927;DHT22;21132;48.308;14.274;2023-07-08T02:53:10;22.00;42.70
34927;DHT22;21132;48.308;14.274;2023-07-08T02:55:55;22.00;42.70
34927;DHT22;21132;48.308;14.274;2023-07-08T02:58:37;21.90;42.60
34927;DHT22;21132;48.308;14.274;2023-07-08T03:01:13;21.90;42.60
34927;DHT22;21132;48.308;14.274;2023-07-08T03:03:50;21.80;42.70
34927;DHT22;21132;48.308;14.274;2023-07-08T03:06:29;21.80;43.50
34927;DHT22;21132;48.308;14.274;2023-07-08T03:09:11;21.80;43.00
34927;DHT22;21132;48.308;14.274;2023-07-08T03:11:51;21.80;43.40
34927;DHT22;21132;48.308;14.274;2023-07-08T03:14:30;21.80;43.40
34927;DHT22;21132;48.308;14.274;2023-07-08T03:17:09;21.70;42.90
34927;DHT22;21132;48.308;14.274;2023-07-08T03:19:45;21.80;43.00
34927;DHT22;21132;48.308;14.274;2023-07-08T03:22:22;21.70;43.10
34927;DHT22;21132;48.308;14.274;2023-07-08T03:25:07;21.70;43.00
34927;DHT22;21132;48.308;14.274;2023-07-08T03:27:40;21.60;43.30
34927;DHT22;21132;48.308;14.274;2023-07-08T03:30:11;21.60;43.10
34927;DHT22;21132;48.308;14.274;2023-07-08T03:32:47;21.60;43.50
34927;DHT22;21132;48.308;14.274;2023-07-08T03:35:32;21.50;43.50
34927;DHT22;21132;48.308;14.274;2023-07-08T03:38:20;21.50;43.70
34927;DHT22;21132;48.308;14.274;2023-07-08T03:41:05;21.50;43.80
34927;DHT22;21132;48.308;14.274;2023-07-08T03:43:48;21.50;43.60
34927;DHT22;21132;48.308;14.274;2023-07-08T03:46:26;21.40;44.00
34927;DHT22;21132;48.308;14.274;2023-07-08T03:49:09;21.50;44.30
34927;DHT22;21132;48.308;14.274;2023-07-08T03:51:50;21.40;44.30
34927;DHT22;21132;48.308;14.274;2023-07-08T03:54:35;21.40;44.40
34927;DHT22;21132;48.308;14.274;2023-07-08T03:57:11;21.40;44.50
34927;DHT22;21132;48.308;14.274;2023-07-08T03:59:48;21.40;44.90
34927;DHT22;21132;48.308;14.274;2023-07-08T04:02:27;21.40;44.50
34927;DHT22;21132;48.308;14.274;2023-07-08T04:05:01;21.40;44.70
34927;DHT22;21132;48.308;14.274;2023-07-08T04:07:33;21.40;44.80
34927;DHT22;21132;48.308;14.274;2023-07-08T04:10:13;21.40;44.60
34927;DHT22;21132;48.308;14.274;2023-07-08T04:12:57;21.40;45.00
34927;DHT22;21132;48.308;14.274;2023-07-08T04:15:34;21.40;45.00
34927;DHT22;21132;48.308;14.274;2023-07-08T04:18:07;21.40;45.10
34927;DHT22;21132;48.308;14.274;2023-07-08T04:20:43;21.40;45.20
34927;DHT22;21132;48.308;14.274;2023-07-08T04:23:15;21.40;45.10
34927;DHT22;21132;48.308;14.274;2023-07-08T04:25:52;21.50;45.30
34927;DHT22;21132;48.308;14.274;2023-07-08T04:28:22;21.50;45.60
34927;DHT22;21132;48.308;14.274;2023-07-08T04:31:02;21.50;45.40
34927;DHT22;21132;48.308;14.274;2023-07-08T04:33:44;21.60;45.80
34927;DHT22;21132;48.308;14.274;2023-07-08T04:36:20;21.60;45.80
34927;DHT22;21132;48.308;14.274;2023-07-08T04:39:02;21.70;45.60
34927;DHT22;21132;48.308;14.274;2023-07-08T04:41:40;21.70;45.60
34927;DHT22;21132;48.308;14.274;2023-07-08T04:44:22;21.80;45.40
34927;DHT22;21132;48.308;14.274;2023-07-08T04:47:01;21.90;45.50
34927;DHT22;21132;48.308;14.274;2023-07-08T04:49:35;22.00;45.30
34927;DHT22;21132;48.308;14.274;2023-07-08T04:52:09;22.10;45.70
34927;DHT22;21132;48.308;14.274;2023-07-08T04:54:40;22.20;46.20
34927;DHT22;21132;48.308;14.274;2023-07-08T04:57:22;22.30;45.80
34927;DHT22;21132;48.308;14.274;2023-07-08T05:00:07;22.40;45.30
34927;DHT22;21132;48.308;14.274;2023-07-08T05:02:45;22.40;44.90
34927;DHT22;21132;48.308;14.274;2023-07-08T05:05:27;22.50;45.10
34927;DHT22;21132;48.308;14.274;2023-07-08T05:08:09;22.60;45.20
34927;DHT22;21132;48.308;14.274;2023-07-08T05:10:51;22.70;45.10
34927;DHT22;21132;48.308;14.274;2023-07-08T05:13:27;22.80;44.80
34927;DHT22;21132;48.308;14.274;2023-07-08T05:15:59;22.90;44.90
34927;DHT22;21132;48.308;14.274;2023-07-08T05:18:35;22.90;44.50
34927;DHT22;21132;48.308;14.274;2023-07-08T05:21:08;23.00;44.20
34927;DHT22;21132;48.308;14.274;2023-07-08T05:23:44;23.20;43.80
34927;DHT22;21132;48.308;14.274;2023-07-08T05:26:26;23.30;43.20
34927;DHT22;21132;48.308;14.274;2023-07-08T05:29:08;23.30;43.00
34927;DHT22;21132;48.308;14.274;2023-07-08T05:31:47;23.50;42.80
34927;DHT22;21132;48.308;14.274;2023-07-08T05:34:27;23.60;41.90
34927;DHT22;21132;48.308;14.274;2023-07-08T05:37:11;23.80;42.00
34927;DHT22;21132;48.308;14.274;2023-07-08T05:39:51;24.00;41.10
34927;DHT22;21132;48.308;14.274;2023-07-08T05:42:33;24.20;40.30
34927;DHT22;21132;48.308;14.274;2023-07-08T05:45:15;24.40;40.40
34927;DHT22;21132;48.308;14.274;2023-07-08T05:47:57;24.60;39.50
34927;DHT22;21132;48.308;14.274;2023-07-08T05:50:41;24.80;38.50
34927;DHT22;21132;48.308;14.274;2023-07-08T05:53:18;25.00;38.90
34927;DHT22;21132;48.308;14.274;2023-07-08T05:55:55;25.20;38.90
34927;DHT22;21132;48.308;14.274;2023-07-08T05:58:39;25.30;38.30
34927;DHT22;21132;48.308;14.274;2023-07-08T06:01:19;25.60;38.10
34927;DHT22;21132;48.308;14.274;2023-07-08T06:03:52;25.70;37.20
34927;DHT22;21132;48.308;14.274;2023-07-08T06:06:31;25.80;36.50
34927;DHT22;21132;48.308;14.274;2023-07-08T06:09:08;25.90;35.50
34927;DHT22;21132;48.308;14.274;2023-07-08T06:11:44;26.00;35.90
34927;DHT22;21132;48.308;14.274;2023-07-08T06:14:29;26.10;35.80
34927;DHT22;21132;48.308;14.274;2023-07-08T06:17:08;26.20;36.10
34927;DHT22;21132;48.308;14.274;2023-07-08T06:19:48;26.30;36.30
34927;DHT22;21132;48.308;14.274;2023-07-08T06:25:06;26.40;36.20
34927;DHT22;21132;48.308;14.274;2023-07-08T06:27:37;26.40;36.00
34927;DHT22;21132;48.308;14.274;2023-07-08T06:30:18;26.40;35.90
34927;DHT22;21132;48.308;14.274;2023-07-08T06:32:51;26.50;35.40
34927;DHT22;21132;48.308;14.274;2023-07-08T06:35:30;26.50;35.10
34927;DHT22;21132;48.308;14.274;2023-07-08T06:38:16;26.50;35.10
34927;DHT22;21132;48.308;14.274;2023-07-08T06:40:53;26.50;34.70
34927;DHT22;21132;48.308;14.274;2023-07-08T06:43:31;26.50;35.10
34927;DHT22;21132;48.308;14.274;2023-07-08T06:46:16;26.50;35.30
34927;DHT22;21132;48.308;14.274;2023-07-08T06:48:58;26.60;35.00
34927;DHT22;21132;48.308;14.274;2023-07-08T06:51:44;26.60;35.40
34927;DHT22;21132;48.308;14.274;2023-07-08T06:54:26;26.70;35.10
34927;DHT22;21132;48.308;14.274;2023-07-08T06:57:09;26.70;35.20
34927;DHT22;21132;48.308;14.274;2023-07-08T06:59:49;26.80;35.20
34927;DHT22;21132;48.308;14.274;2023-07-08T07:02:20;26.90;35.40
34927;DHT22;21132;48.308;14.274;2023-07-08T07:04:46;27.00;34.60
34927;DHT22;21132;48.308;14.274;2023-07-08T07:07:17;27.10;34.90
34927;DHT22;21132;48.308;14.274;2023-07-08T07:09:48;27.30;35.00
34927;DHT22;21132;48.308;14.274;2023-07-08T07:12:21;27.30;34.80
34927;DHT22;21132;48.308;14.274;2023-07-08T07:14:57;27.40;34.20
34927;DHT22;21132;48.308;14.274;2023-07-08T07:17:40;27.50;34.20
34927;DHT22;21132;48.308;14.274;2023-07-08T07:20:16;27.50;34.20
34927;DHT22;21132;48.308;14.274;2023-07-08T07:22:53;27.50;34.40
34927;DHT22;21132;48.308;14.274;2023-07-08T07:25:37;27.60;34.90
34927;DHT22;21132;48.308;14.274;2023-07-08T07:28:10;27.60;34.30
34927;DHT22;21132;48.308;14.274;2023-07-08T07:30:59;27.70;34.00
34927;DHT22;21132;48.308;14.274;2023-07-08T07:33:45;27.60;34.40
34927;DHT22;21132;48.308;14.274;2023-07-08T07:36:21;27.70;34.40
34927;DHT22;21132;48.308;14.274;2023-07-08T07:39:01;27.60;34.20
34927;DHT22;21132;48.308;14.274;2023-07-08T07:41:37;27.70;34.60
34927;DHT22;21132;48.308;14.274;2023-07-08T07:44:13;27.70;34.40
34927;DHT22;21132;48.308;14.274;2023-07-08T07:46:50;27.70;34.80
34927;DHT22;21132;48.308;14.274;2023-07-08T07:49:19;27.80;35.00
34927;DHT22;21132;48.308;14.274;2023-07-08T07:51:53;27.80;34.40
34927;DHT22;21132;48.308;14.274;2023-07-08T07:54:26;27.80;34.60
34927;DHT22;21132;48.308;14.274;2023-07-08T07:57:00;27.80;34.00
34927;DHT22;21132;48.308;14.274;2023-07-08T07:59:36;27.80;34.50
34927;DHT22;21132;48.308;14.274;2023-07-08T08:02:09;27.90;34.40
34927;DHT22;21132;48.308;14.274;2023-07-08T08:04:45;27.90;33.70
34927;DHT22;21132;48.308;14.274;2023-07-08T08:07:17;27.90;33.90
34927;DHT22;21132;48.308;14.274;2023-07-08T08:09:48;27.90;33.80
34927;DHT22;21132;48.308;14.274;2023-07-08T08:12:14;28.00;34.20
34927;DHT22;21132;48.308;14.274;2023-07-08T08:14:40;28.00;33.50
34927;DHT22;21132;48.308;14.274;2023-07-08T08:17:06;28.10;34.00
34927;DHT22;21132;48.308;14.274;2023-07-08T08:19:32;28.10;33.40
34927;DHT22;21132;48.308;14.274;2023-07-08T08:22:09;28.20;33.80
34927;DHT22;21132;48.308;14.274;2023-07-08T08:24:53;28.20;33.50
34927;DHT22;21132;48.308;14.274;2023-07-08T08:27:25;28.30;33.50
34927;DHT22;21132;48.308;14.274;2023-07-08T08:30:01;28.30;32.50
34927;DHT22;21132;48.308;14.274;2023-07-08T08:32:46;28.40;32.80
34927;DHT22;21132;48.308;14.274;2023-07-08T08:35:24;28.40;32.60
34927;DHT22;21132;48.308;14.274;2023-07-08T08:37:57;28.50;33.10
34927;DHT22;21132;48.308;14.274;2023-07-08T08:40:33;28.50;32.00
34927;DHT22;21132;48.308;14.274;2023-07-08T08:43:28;28.70;32.60
34927;DHT22;21132;48.308;14.274;2023-07-08T08:51:44;28.90;32.20
34927;DHT22;21132;48.308;14.274;2023-07-08T08:54:17;29.00;31.90
34927;DHT22;21132;48.308;14.274;2023-07-08T08:57:12;29.00;30.80
34927;DHT22;21132;48.308;14.274;2023-07-08T08:59:58;29.10;30.80
34927;DHT22;21132;48.308;14.274;2023-07-08T09:05:31;29.20;31.40
34927;DHT22;21132;48.308;14.274;2023-07-08T09:13:38;29.40;30.00
34927;DHT22;21132;48.308;14.274;2023-07-08T09:16:29;29.40;30.00
34927;DHT22;21132;48.308;14.274;2023-07-08T09:19:30;29.50;30.60
34927;DHT22;21132;48.308;14.274;2023-07-08T09:22:06;29.60;31.30
34927;DHT22;21132;48.308;14.274;2023-07-08T09:24:48;29.70;29.30
34927;DHT22;21132;48.308;14.274;2023-07-08T09:27:15;29.80;29.70
34927;DHT22;21132;48.308;14.274;2023-07-08T09:29:41;29.90;28.80
34927;DHT22;21132;48.308;14.274;2023-07-08T09:32:23;30.00;29.10
34927;DHT22;21132;48.308;14.274;2023-07-08T09:34:54;30.10;29.40
34927;DHT22;21132;48.308;14.274;2023-07-08T09:37:28;30.10;29.10
34927;DHT22;21132;48.308;14.274;2023-07-08T09:39:55;30.20;29.00
34927;DHT22;21132;48.308;14.274;2023-07-08T09:42:32;30.30;28.90
34927;DHT22;21132;48.308;14.274;2023-07-08T09:45:10;30.50;29.40
34927;DHT22;21132;48.308;14.274;2023-07-08T09:47:37;30.50;28.90
34927;DHT22;21132;48.308;14.274;2023-07-08T09:50:10;30.70;28.40
34927;DHT22;21132;48.308;14.274;2023-07-08T09:52:49;30.80;27.60
34927;DHT22;21132;48.308;14.274;2023-07-08T09:55:26;30.90;28.00
34927;DHT22;21132;48.308;14.274;2023-07-08T09:58:05;31.00;27.70
34927;DHT22;21132;48.308;14.274;2023-07-08T10:00:57;31.00;27.90
34927;DHT22;21132;48.308;14.274;2023-07-08T10:03:37;31.20;28.30
34927;DHT22;21132;48.308;14.274;2023-07-08T10:06:27;31.20;27.70
34927;DHT22;21132;48.308;14.274;2023-07-08T10:09:02;31.40;27.90
34927;DHT22;21132;48.308;14.274;2023-07-08T10:11:50;31.50;27.30
34927;DHT22;21132;48.308;14.274;2023-07-08T10:14:37;31.50;27.40
34927;DHT22;21132;48.308;14.274;2023-07-08T10:17:16;31.60;27.00
34927;DHT22;21132;48.308;14.274;2023-07-08T10:19:54;31.60;26.70
34927;DHT22;21132;48.308;14.274;2023-07-08T10:22:53;31.70;27.10
34927;DHT22;21132;48.308;14.274;2023-07-08T10:26:23;31.80;26.90
34927;DHT22;21132;48.308;14.274;2023-07-08T10:34:59;32.10;27.00
34927;DHT22;21132;48.308;14.274;2023-07-08T10:37:47;32.30;27.10
34927;DHT22;21132;48.308;14.274;2023-07-08T10:46:30;32.70;26.50
34927;DHT22;21132;48.308;14.274;2023-07-08T10:49:33;32.80;26.30
34927;DHT22;21132;48.308;14.274;2023-07-08T10:58:36;33.20;26.00
34927;DHT22;21132;48.308;14.274;2023-07-08T11:07:15;33.50;24.50
34927;DHT22;21132;48.308;14.274;2023-07-08T11:10:10;33.50;25.20
34927;DHT22;21132;48.308;14.274;2023-07-08T11:12:55;33.60;25.20
34927;DHT22;21132;48.308;14.274;2023-07-08T11:16:20;33.80;24.40
34927;DHT22;21132;48.308;14.274;2023-07-08T11:19:04;33.90;24.30
34927;DHT22;21132;48.308;14.274;2023-07-08T11:21:41;34.00;24.50
34927;DHT22;21132;48.308;14.274;2023-07-08T11:24:37;34.00;22.90
34927;DHT22;21132;48.308;14.274;2023-07-08T11:27:26;34.10;23.30
34927;DHT22;21132;48.308;14.274;2023-07-08T11:32:46;34.20;23.00
34927;DHT22;21132;48.308;14.274;2023-07-08T11:35:34;34.40;23.20
34927;DHT22;21132;48.308;14.274;2023-07-08T11:38:09;34.50;23.60
34927;DHT22;21132;48.308;14.274;2023-07-08T11:43:27;34.90;23.50
34927;DHT22;21132;48.308;14.274;2023-07-08T11:46:14;34.90;22.80
34927;DHT22;21132;48.308;14.274;2023-07-08T11:48:50;35.10;23.10
34927;DHT22;21132;48.308;14.274;2023-07-08T11:51:29;35.20;22.70
34927;DHT22;21132;48.308;14.274;2023-07-08T11:54:30;35.30;21.10
34927;DHT22;21132;48.308;14.274;2023-07-08T11:57:14;35.30;21.90
34927;DHT22;21132;48.308;14.274;2023-07-08T11:59:56;35.40;22.40
34927;DHT22;21132;48.308;14.274;2023-07-08T12:02:57;35.50;22.40
34927;DHT22;21132;48.308;14.274;2023-07-08T12:05:36;35.60;22.20
34927;DHT22;21132;48.308;14.274;2023-07-08T12:08:17;35.70;21.80
34927;DHT22;21132;48.308;14.274;2023-07-08T12:10:52;35.80;22.20
34927;DHT22;21132;48.308;14.274;2023-07-08T12:13:22;35.80;21.00
34927;DHT22;21132;48.308;14.274;2023-07-08T12:15:48;35.90;21.30
34927;DHT22;21132;48.308;14.274;2023-07-08T12:18:25;35.90;21.90
34927;DHT22;21132;48.308;14.274;2023-07-08T12:20:58;36.00;21.50
34927;DHT22;21132;48.308;14.274;2023-07-08T12:23:27;36.00;21.30
34927;DHT22;21132;48.308;14.274;2023-07-08T12:26:02;36.00;20.80
34927;DHT22;21132;48.308;14.274;2023-07-08T12:28:41;36.00;20.70
34927;DHT22;21132;48.308;14.274;2023-07-08T12:31:27;36.00;20.50
34927;DHT22;21132;48.308;14.274;2023-07-08T12:34:00;35.90;20.70
34927;DHT22;21132;48.308;14.274;2023-07-08T12:36:39;35.90;20.90
34927;DHT22;21132;48.308;14.274;2023-07-08T12:39:20;35.80;20.90
34927;DHT22;21132;48.308;14.274;2023-07-08T12:42:00;35.80;20.50
34927;DHT22;21132;48.308;14.274;2023-07-08T12:44:28;35.70;20.50
34927;DHT22;21132;48.308;14.274;2023-07-08T12:47:02;35.50;20.70
34927;DHT22;21132;48.308;14.274;2023-07-08T12:49:45;35.50;20.50
34927;DHT22;21132;48.308;14.274;2023-07-08T12:52:33;35.50;20.80
34927;DHT22;21132;48.308;14.274;2023-07-08T12:55:19;35.50;20.30
34927;DHT22;21132;48.308;14.274;2023-07-08T12:58:01;35.50;20.60
34927;DHT22;21132;48.308;14.274;2023-07-08T13:00:38;35.60;20.60
34927;DHT22;21132;48.308;14.274;2023-07-08T13:03:15;35.60;20.30
34927;DHT22;21132;48.308;14.274;2023-07-08T13:05:51;35.60;20.90
34927;DHT22;21132;48.308;14.274;2023-07-08T13:08:29;35.60;20.50
34927;DHT22;21132;48.308;14.274;2023-07-08T13:11:13;35.60;20.20
34927;DHT22;21132;48.308;14.274;2023-07-08T13:13:58;35.60;20.80
34927;DHT22;21132;48.308;14.274;2023-07-08T13:16:33;35.60;21.40
34927;DHT22;21132;48.308;14.274;2023-07-08T13:19:03;35.70;21.70
34927;DHT22;21132;48.308;14.274;2023-07-08T13:21:42;35.80;21.80
34927;DHT22;21132;48.308;14.274;2023-07-08T13:24:18;35.90;21.90
34927;DHT22;21132;48.308;14.274;2023-07-08T13:26:55;36.00;21.30
34927;DHT22;21132;48.308;14.274;2023-07-08T13:29:25;36.10;21.40
34927;DHT22;21132;48.308;14.274;2023-07-08T13:32:05;36.20;20.80
34927;DHT22;21132;48.308;14.274;2023-07-08T13:34:45;36.30;21.60
34927;DHT22;21132;48.308;14.274;2023-07-08T13:37:24;36.40;20.80
34927;DHT22;21132;48.308;14.274;2023-07-08T13:39:56;36.60;20.10
34927;DHT22;21132;48.308;14.274;2023-07-08T13:42:41;36.60;20.30
34927;DHT22;21132;48.308;14.274;2023-07-08T13:45:33;36.70;19.60
34927;DHT22;21132;48.308;14.274;2023-07-08T13:51:21;36.90;20.40
34927;DHT22;21132;48.308;14.274;2023-07-08T13:54:19;37.10;19.60
34927;DHT22;21132;48.308;14.274;2023-07-08T13:56:59;37.10;19.20
34927;DHT22;21132;48.308;14.274;2023-07-08T13:59:39;37.20;19.30
34927;DHT22;21132;48.308;14.274;2023-07-08T14:02:25;37.30;19.10
34927;DHT22;21132;48.308;14.274;2023-07-08T14:05:08;37.50;18.80
34927;DHT22;21132;48.308;14.274;2023-07-08T14:07:46;37.60;19.00
34927;DHT22;21132;48.308;14.274;2023-07-08T14:10:22;37.70;19.20
34927;DHT22;21132;48.308;14.274;2023-07-08T14:13:07;37.80;19.10
34927;DHT22;21132;48.308;14.274;2023-07-08T14:15:42;37.90;18.70
34927;DHT22;21132;48.308;14.274;2023-07-08T14:18:14;38.00;18.90
34927;DHT22;21132;48.308;14.274;2023-07-08T14:20:45;38.10;19.40
34927;DHT22;21132;48.308;14.274;2023-07-08T14:23:31;38.20;19.30
34927;DHT22;21132;48.308;14.274;2023-07-08T14:26:10;38.30;19.50
34927;DHT22;21132;48.308;14.274;2023-07-08T14:28:44;38.50;19.20
34927;DHT22;21132;48.308;14.274;2023-07-08T14:31:23;38.60;18.90
34927;DHT22;21132;48.308;14.274;2023-07-08T14:34:30;38.70;17.70
34927;DHT22;21132;48.308;14.274;2023-07-08T14:37:29;38.80;18.30
34927;DHT22;21132;48.308;14.274;2023-07-08T14:40:27;38.90;18.10
34927;DHT22;21132;48.308;14.274;2023-07-08T14:50:14;39.30;18.10
34927;DHT22;21132;48.308;14.274;2023-07-08T14:52:56;39.60;17.90
34927;DHT22;21132;48.308;14.274;2023-07-08T14:59:22;40.10;17.60
34927;DHT22;21132;48.308;14.274;2023-07-08T15:01:57;40.40;18.00
34927;DHT22;21132;48.308;14.274;2023-07-08T15:04:32;40.70;17.50
34927;DHT22;21132;48.308;14.274;2023-07-08T15:07:21;41.00;17.20
34927;DHT22;21132;48.308;14.274;2023-07-08T15:10:00;41.40;16.90
34927;DHT22;21132;48.308;14.274;2023-07-08T15:12:50;41.80;16.70
34927;DHT22;21132;48.308;14.274;2023-07-08T15:15:47;42.10;16.50
34927;DHT22;21132;48.308;14.274;2023-07-08T15:18:56;42.40;16.20
34927;DHT22;21132;48.308;14.274;2023-07-08T15:21:41;42.90;17.20
34927;DHT22;21132;48.308;14.274;2023-07-08T15:24:18;43.20;16.10
34927;DHT22;21132;48.308;14.274;2023-07-08T15:27:02;43.60;15.90
34927;DHT22;21132;48.308;14.274;2023-07-08T15:29:41;43.90;16.00
34927;DHT22;21132;48.308;14.274;2023-07-08T15:32:18;44.30;15.80
34927;DHT22;21132;48.308;14.274;2023-07-08T15:34:56;44.60;15.50
34927;DHT22;21132;48.308;14.274;2023-07-08T15:37:43;44.80;15.20
34927;DHT22;21132;48.308;14.274;2023-07-08T15:40:19;45.10;14.00
34927;DHT22;21132;48.308;14.274;2023-07-08T15:43:05;45.40;14.90
34927;DHT22;21132;48.308;14.274;2023-07-08T15:45:48;45.60;14.10
34927;DHT22;21132;48.308;14.274;2023-07-08T15:48:22;45.70;14.10
34927;DHT22;21132;48.308;14.274;2023-07-08T15:51:28;45.80;14.10
34927;DHT22;21132;48.308;14.274;2023-07-08T15:54:13;46.00;14.60
34927;DHT22;21132;48.308;14.274;2023-07-08T15:56:58;46.00;13.40
34927;DHT22;21132;48.308;14.274;2023-07-08T15:59:33;46.10;13.60
34927;DHT22;21132;48.308;14.274;2023-07-08T16:02:10;46.20;13.50
34927;DHT22;21132;48.308;14.274;2023-07-08T16:04:54;46.30;13.70
34927;DHT22;21132;48.308;14.274;2023-07-08T16:07:36;46.50;14.10
34927;DHT22;21132;48.308;14.274;2023-07-08T16:10:14;46.80;14.00
34927;DHT22;21132;48.308;14.274;2023-07-08T16:12:46;47.10;13.80
34927;DHT22;21132;48.308;14.274;2023-07-08T16:15:34;47.40;13.60
34927;DHT22;21132;48.308;14.274;2023-07-08T16:18:17;47.70;13.40
34927;DHT22;21132;48.308;14.274;2023-07-08T16:20:59;48.00;13.20
34927;DHT22;21132;48.308;14.274;2023-07-08T16:23:33;48.10;12.30
34927;DHT22;21132;48.308;14.274;2023-07-08T16:26:16;48.00;12.40
34927;DHT22;21132;48.308;14.274;2023-07-08T16:28:44;47.90;13.20
34927;DHT22;21132;48.308;14.274;2023-07-08T16:31:21;47.90;13.00
34927;DHT22;21132;48.308;14.274;2023-07-08T16:33:55;47.90;13.40
34927;DHT22;21132;48.308;14.274;2023-07-08T16:36:34;48.10;13.30
34927;DHT22;21132;48.308;14.274;2023-07-08T16:39:19;48.10;14.10
34927;DHT22;21132;48.308;14.274;2023-07-08T16:41:56;48.30;13.40
34927;DHT22;21132;48.308;14.274;2023-07-08T16:44:33;48.40;13.60
34927;DHT22;21132;48.308;14.274;2023-07-08T16:47:08;48.40;13.00
34927;DHT22;21132;48.308;14.274;2023-07-08T16:49:50;48.50;12.40
34927;DHT22;21132;48.308;14.274;2023-07-08T16:52:21;48.50;12.40
34927;DHT22;21132;48.308;14.274;2023-07-08T16:55:04;48.40;13.00
34927;DHT22;21132;48.308;14.274;2023-07-08T16:57:35;48.40;12.70
34927;DHT22;21132;48.308;14.274;2023-07-08T17:00:15;48.30;13.20
34927;DHT22;21132;48.308;14.274;2023-07-08T17:02:49;48.10;13.50
34927;DHT22;21132;48.308;14.274;2023-07-08T17:05:29;47.50;13.30
34927;DHT22;21132;48.308;14.274;2023-07-08T17:08:02;46.80;12.60
34927;DHT22;21132;48.308;14.274;2023-07-08T17:10:36;46.00;12.40
34927;DHT22;21132;48.308;14.274;2023-07-08T17:13:15;45.00;13.90
34927;DHT22;21132;48.308;14.274;2023-07-08T17:15:52;44.20;13.50
34927;DHT22;21132;48.308;14.274;2023-07-08T17:18:31;43.40;13.40
34927;DHT22;21132;48.308;14.274;2023-07-08T17:21:12;42.50;14.80
34927;DHT22;21132;48.308;14.274;2023-07-08T17:23:47;41.80;15.40
34927;DHT22;21132;48.308;14.274;2023-07-08T17:26:23;41.10;16.20
34927;DHT22;21132;48.308;14.274;2023-07-08T17:28:57;40.50;16.70